createdAt,value
2018-07-31T00:00:03.585Z,19.37
2018-07-31T00:05:03.583Z,19.28
2018-07-31T00:10:03.589Z,19.31
2018-07-31T00:15:03.588Z,19.36
2018-07-31T00:20:03.597Z,19.44
2018-07-31T00:25:03.599Z,19.5
2018-07-31T00:30:03.596Z,19.58
2018-07-31T00:35:03.599Z,19.61
2018-07-31T00:40:03.614Z,19.72
2018-07-31T00:45:03.603Z,19.81
2018-07-31T00:50:03.608Z,19.74
2018-07-31T00:55:03.619Z,19.62
2018-07-31T01:00:03.612Z,19.54
2018-07-31T01:05:03.617Z,19.42
2018-07-31T01:10:03.626Z,19.36
2018-07-31T01:15:03.622Z,19.46
2018-07-31T01:20:03.623Z,19.47
2018-07-31T01:25:03.637Z,19.53
2018-07-31T01:30:03.628Z,19.46
2018-07-31T01:35:03.635Z,19.39
2018-07-31T01:40:03.647Z,19.38
2018-07-31T01:45:03.641Z,19.29
2018-07-31T01:50:03.633Z,19.12
2018-07-31T01:55:03.647Z,19
2018-07-31T02:00:03.646Z,18.89
2018-07-31T02:05:03.650Z,18.85
2018-07-31T02:10:03.667Z,18.81
2018-07-31T02:15:03.651Z,18.77
2018-07-31T02:20:03.652Z,18.66
2018-07-31T02:25:03.658Z,18.52
2018-07-31T02:30:03.673Z,18.38
2018-07-31T02:35:03.673Z,18.27
2018-07-31T02:40:03.666Z,18.11
2018-07-31T02:45:03.666Z,17.99
2018-07-31T02:50:03.684Z,17.92
2018-07-31T02:55:03.681Z,17.83
2018-07-31T03:00:03.680Z,17.83
2018-07-31T03:05:03.694Z,17.79
2018-07-31T03:10:03.699Z,17.79
2018-07-31T03:15:03.696Z,17.78
2018-07-31T03:20:03.706Z,17.68
2018-07-31T03:25:03.700Z,17.67
2018-07-31T03:30:03.711Z,17.63
2018-07-31T03:35:03.701Z,17.6
2018-07-31T03:40:03.709Z,17.55
2018-07-31T03:45:03.699Z,17.51
2018-07-31T03:50:03.767Z,17.5
2018-07-31T03:55:03.726Z,17.56
2018-07-31T04:00:03.706Z,17.59
2018-07-31T04:05:03.708Z,17.62
2018-07-31T04:10:03.719Z,17.63
2018-07-31T04:15:03.715Z,17.62
2018-07-31T04:20:03.716Z,17.68
2018-07-31T04:25:03.885Z,17.72
2018-07-31T04:30:03.765Z,17.72
2018-07-31T04:35:03.725Z,17.75
2018-07-31T04:40:03.746Z,17.76
2018-07-31T04:45:03.732Z,17.8
2018-07-31T04:50:03.732Z,17.85
2018-07-31T04:55:03.747Z,17.91
2018-07-31T05:00:03.741Z,18.07
2018-07-31T05:05:03.743Z,18.25
2018-07-31T05:10:03.762Z,18.48
2018-07-31T05:15:03.745Z,18.74
2018-07-31T05:20:03.751Z,19.02
2018-07-31T05:25:03.765Z,19.44
2018-07-31T05:30:03.753Z,19.97
2018-07-31T05:35:03.757Z,20.77
2018-07-31T05:40:03.765Z,20.76
2018-07-31T05:45:03.759Z,20.65
2018-07-31T05:50:03.766Z,20.59
2018-07-31T05:55:03.773Z,20.62
2018-07-31T06:00:03.771Z,20.69
2018-07-31T06:05:03.769Z,20.78
2018-07-31T06:10:03.779Z,21.05
2018-07-31T06:15:03.775Z,21.23
2018-07-31T06:20:03.782Z,21.69
2018-07-31T06:25:03.783Z,22.03
2018-07-31T06:30:03.788Z,22.58
2018-07-31T06:35:03.796Z,23.08
2018-07-31T06:40:03.795Z,23.61
2018-07-31T06:45:03.796Z,24.05
2018-07-31T06:50:03.811Z,24.49
2018-07-31T06:55:03.800Z,24.88
2018-07-31T07:00:03.798Z,25.21
2018-07-31T07:05:03.814Z,25.63
2018-07-31T07:10:03.810Z,26.06
2018-07-31T07:15:03.811Z,26.7
2018-07-31T07:20:03.824Z,27.72
2018-07-31T07:25:03.825Z,28.78
2018-07-31T07:30:03.820Z,29.34
2018-07-31T07:35:03.832Z,29.81
2018-07-31T07:40:03.834Z,30.62
2018-07-31T07:45:03.830Z,31.06
2018-07-31T07:50:03.834Z,31.64
2018-07-31T07:55:03.834Z,32.23
2018-07-31T08:00:03.837Z,32.64
2018-07-31T08:05:03.847Z,32.97
2018-07-31T08:10:03.842Z,33.61
2018-07-31T08:15:03.871Z,33.83
2018-07-31T08:20:03.867Z,34.44
2018-07-31T08:25:03.849Z,34.9
2018-07-31T08:30:03.854Z,34.88
2018-07-31T08:35:03.857Z,35.06
2018-07-31T08:40:03.857Z,35.37
2018-07-31T08:45:03.865Z,35.58
2018-07-31T08:50:03.948Z,35.57
2018-07-31T08:55:03.866Z,36.26
2018-07-31T09:00:03.867Z,36.55
2018-07-31T09:05:03.878Z,36.62
2018-07-31T09:10:03.892Z,37.3
2018-07-31T09:15:03.880Z,38.4
2018-07-31T09:20:03.884Z,39.56
2018-07-31T09:25:03.884Z,39.92
2018-07-31T09:30:03.884Z,40.41
2018-07-31T09:35:03.888Z,41.47
2018-07-31T09:40:03.890Z,42.25
2018-07-31T09:45:03.898Z,43.06
2018-07-31T09:50:03.899Z,43.36
2018-07-31T09:55:03.898Z,44.06
2018-07-31T10:00:03.899Z,43.34
2018-07-31T10:05:03.929Z,42.07
2018-07-31T10:10:03.927Z,41.19
2018-07-31T10:15:03.908Z,40.81
2018-07-31T10:20:03.909Z,41.35
2018-07-31T10:25:03.934Z,39.94
2018-07-31T10:30:03.918Z,38.44
2018-07-31T10:35:03.920Z,37.58
2018-07-31T10:40:03.931Z,36.59
2018-07-31T10:45:03.924Z,36.34
2018-07-31T10:50:03.933Z,36.23
2018-07-31T10:55:03.969Z,36.15
2018-07-31T11:00:04.079Z,37.19
2018-07-31T11:05:03.937Z,37.35
2018-07-31T11:10:03.946Z,37.05
2018-07-31T11:15:03.960Z,37.25
2018-07-31T11:20:03.947Z,38.84
2018-07-31T11:25:03.954Z,39.22
2018-07-31T11:30:03.955Z,38.39
2018-07-31T11:35:03.950Z,38.2
2018-07-31T11:40:03.957Z,38.09
2018-07-31T11:45:03.974Z,39.8
2018-07-31T11:50:04.097Z,42.58
2018-07-31T11:55:03.965Z,43.02
2018-07-31T12:00:03.966Z,42.64
2018-07-31T12:05:03.983Z,41.25
2018-07-31T12:10:04.020Z,40.78
2018-07-31T12:15:03.970Z,44.13
2018-07-31T12:20:03.982Z,42.26
2018-07-31T12:25:03.979Z,41.94
2018-07-31T12:30:03.989Z,42.34
2018-07-31T12:35:03.990Z,44.33
2018-07-31T12:40:03.984Z,43.76
2018-07-31T12:45:04.004Z,43.55
2018-07-31T12:50:04.011Z,41.83
2018-07-31T12:55:04.000Z,40.71
2018-07-31T13:00:04.039Z,41.11
2018-07-31T13:05:04.006Z,40.48
2018-07-31T13:10:03.998Z,39.83
2018-07-31T13:15:04.001Z,41.47
2018-07-31T13:20:04.014Z,43.88
2018-07-31T13:25:04.007Z,44.37
2018-07-31T13:30:04.013Z,42.91
2018-07-31T13:35:04.017Z,42.52
2018-07-31T13:40:04.020Z,40.92
2018-07-31T13:45:04.029Z,39.62
2018-07-31T13:50:04.030Z,39.03
2018-07-31T13:55:04.037Z,37.92
2018-07-31T14:00:04.032Z,37.18
2018-07-31T14:05:04.038Z,36.73
2018-07-31T14:10:04.034Z,36.96
2018-07-31T14:15:04.042Z,37.37
2018-07-31T14:20:04.052Z,37.95
2018-07-31T14:25:04.040Z,38.23
2018-07-31T14:30:04.040Z,41.37
2018-07-31T14:35:04.053Z,40.93
2018-07-31T14:40:04.050Z,40.36
2018-07-31T14:45:04.055Z,41.17
2018-07-31T14:50:04.057Z,40.24
2018-07-31T14:55:04.070Z,40.65
2018-07-31T15:00:04.076Z,40.22
2018-07-31T15:05:04.065Z,41.21
2018-07-31T15:10:04.071Z,42.64
2018-07-31T15:15:04.069Z,44
2018-07-31T15:20:04.073Z,43.31
2018-07-31T15:25:04.080Z,43.56
2018-07-31T15:30:04.077Z,43.87
2018-07-31T15:35:04.081Z,43.99
2018-07-31T15:40:04.093Z,43.57
2018-07-31T15:45:04.086Z,43.47
2018-07-31T15:50:04.095Z,42.81
2018-07-31T15:55:04.097Z,43.12
2018-07-31T16:00:04.094Z,41.84
2018-07-31T16:05:04.095Z,41.83
2018-07-31T16:10:04.104Z,41.07
2018-07-31T16:15:04.099Z,41.7
2018-07-31T16:20:04.101Z,41.3
2018-07-31T16:25:04.126Z,40.44
2018-07-31T16:30:04.111Z,38.46
2018-07-31T16:35:04.110Z,36.57
2018-07-31T16:40:04.122Z,35.52
2018-07-31T16:45:04.115Z,34.54
2018-07-31T16:50:04.126Z,34.04
2018-07-31T16:55:04.125Z,33.71
2018-07-31T17:00:04.124Z,33.44
2018-07-31T17:05:04.125Z,33.16
2018-07-31T17:10:04.129Z,33.05
2018-07-31T17:15:04.132Z,32.9
2018-07-31T17:20:04.143Z,32.63
2018-07-31T17:25:04.137Z,32.44
2018-07-31T17:30:04.143Z,32.25
2018-07-31T17:35:04.161Z,32.13
2018-07-31T17:40:04.145Z,32.01
2018-07-31T17:45:04.151Z,31.9
2018-07-31T17:50:04.158Z,31.71
2018-07-31T17:55:04.155Z,31.52
2018-07-31T18:00:04.156Z,31.31
2018-07-31T18:05:04.172Z,31.14
2018-07-31T18:10:04.164Z,30.98
2018-07-31T18:15:04.165Z,30.87
2018-07-31T18:20:04.175Z,30.5
2018-07-31T18:25:04.176Z,29.86
2018-07-31T18:30:04.173Z,29.32
2018-07-31T18:35:04.257Z,28.9
2018-07-31T18:40:04.177Z,28.54
2018-07-31T18:45:04.186Z,28.2
2018-07-31T18:50:04.187Z,27.9
2018-07-31T18:55:04.183Z,27.56
2018-07-31T19:00:04.189Z,27.32
2018-07-31T19:05:04.207Z,27.06
2018-07-31T19:10:04.208Z,26.77
2018-07-31T19:15:04.193Z,26.54
2018-07-31T19:20:04.199Z,26.37
2018-07-31T19:25:04.218Z,26.19
2018-07-31T19:30:04.199Z,26.04
2018-07-31T19:35:04.206Z,25.9
2018-07-31T19:40:04.212Z,25.71
2018-07-31T19:45:04.217Z,25.52
2018-07-31T19:50:04.217Z,25.38
2018-07-31T19:55:04.271Z,25.27
2018-07-31T20:00:04.227Z,25.15
2018-07-31T20:05:04.219Z,25.02
2018-07-31T20:10:04.225Z,24.83
2018-07-31T20:15:04.233Z,24.69
2018-07-31T20:20:04.227Z,24.57
2018-07-31T20:25:04.233Z,24.44
2018-07-31T20:30:04.237Z,24.33
2018-07-31T20:35:04.243Z,24.21
2018-07-31T20:40:04.240Z,24.08
2018-07-31T20:45:04.239Z,23.85
2018-07-31T20:50:04.246Z,23.74
2018-07-31T20:55:04.249Z,23.66
2018-07-31T21:00:04.246Z,23.55
2018-07-31T21:05:04.254Z,23.41
2018-07-31T21:10:04.256Z,23.37
2018-07-31T21:15:04.256Z,23.27
2018-07-31T21:20:04.263Z,23.12
2018-07-31T21:25:04.270Z,23
2018-07-31T21:30:04.271Z,22.91
2018-07-31T21:35:04.273Z,22.86
2018-07-31T21:40:04.275Z,22.76
2018-07-31T21:45:04.277Z,22.7
2018-07-31T21:50:04.274Z,22.6
2018-07-31T21:55:04.277Z,22.55
2018-07-31T22:00:04.287Z,22.41
2018-07-31T22:05:04.289Z,22.32
2018-07-31T22:10:04.286Z,22.17
2018-07-31T22:15:04.309Z,22.01
2018-07-31T22:20:04.292Z,21.89
2018-07-31T22:25:04.338Z,21.74
2018-07-31T22:30:04.319Z,21.72
2018-07-31T22:35:04.299Z,21.73
2018-07-31T22:40:04.311Z,21.62
2018-07-31T22:45:04.308Z,21.51
2018-07-31T22:50:04.318Z,21.46
2018-07-31T22:55:04.310Z,21.43
2018-07-31T23:00:04.321Z,21.45
2018-07-31T23:05:04.336Z,21.42
2018-07-31T23:10:04.321Z,21.36
2018-07-31T23:15:04.326Z,21.27
2018-07-31T23:20:04.337Z,21.2
2018-07-31T23:25:04.337Z,21.1
2018-07-31T23:30:04.333Z,21.02
2018-07-31T23:35:04.342Z,20.91
2018-07-31T23:40:04.337Z,20.85
2018-07-31T23:45:04.346Z,20.77
2018-07-31T23:50:04.352Z,20.66
2018-07-31T23:55:04.347Z,20.54
